Time;durP1;ratioP1;P1;durP2;ratioP2;P2;SDS_P1;SDS_P2;PMS_P1;PMS_P2;Temp;Humidity;BMP_temperature;BMP_pressure;BME280_temperature;BME280_humidity;BME280_pressure;Samples;Min_cycle;Max_cycle;Signal;HPM_P1;HPM_P2
2024/02/12 00:00:11;;;;;;;;;;;;;;;;;;5025137;28;19916;-53
2024/02/12 00:02:39;;;;;;;;;;;;;;;;;;5025274;28;19909;-52
2024/02/12 00:05:06;;;;;;;;;;;;;;;;;;5025154;28;19953;-50
2024/02/12 00:07:32;;;;;;;;;;;;;;;;;;5025319;28;19901;-55
2024/02/12 00:09:59;;;;;;;;;;;;;;;;;;5025097;28;19905;-50
2024/02/12 00:12:26;;;;;;;;;;;;;;;;;;5025606;28;20130;-54
2024/02/12 00:14:53;;;;;;;;;;;;;;;;;;5025702;28;19976;-53
2024/02/12 00:17:20;;;;;;;;;;;;;;;;;;5025240;28;19943;-51
2024/02/12 00:19:49;;;;;;;;;;;;;;;;;;5025374;28;19913;-49
2024/02/12 00:22:16;;;;;;;;;;;;;;;;;;5024914;28;19901;-54
2024/02/12 00:24:42;;;;;;;;;;;;;;;;;;5024997;28;19905;-54
2024/02/12 00:27:08;;;;;;;;;;;;;;;;;;5025036;28;19958;-54
2024/02/12 00:29:34;;;;;;;;;;;;;;;;;;5025543;28;19911;-53
2024/02/12 00:32:00;;;;;;;;;;;;;;;;;;5024684;28;20004;-55
2024/02/12 00:34:28;;;;;;;;;;;;;;;;;;5025243;28;20177;-54
2024/02/12 00:36:54;;;;;;;;;;;;;;;;;;5024946;28;20129;-55
2024/02/12 00:39:20;;;;;;;;;;;;;;;;;;5024987;28;19943;-51
2024/02/12 00:41:48;;;;;;;;;;;;;;;;;;5024564;28;19905;-55
2024/02/12 00:44:14;;;;;;;;;;;;;;;;;;5025286;28;19911;-55
2024/02/12 00:46:41;;;;;;;;;;;;;;;;;;5024861;28;19905;-49
2024/02/12 00:49:08;;;;;;;;;;;;;;;;;;5025120;28;19963;-54
2024/02/12 00:51:36;;;;;;;;;;;;;;;;;;5024937;28;19909;-55
2024/02/12 00:54:03;;;;;;;;;;;;;;;;;;5024892;28;19910;-54
2024/02/12 00:56:29;;;;;;;;;;;;;;;;;;5024391;28;19905;-54
2024/02/12 00:58:55;;;;;;;;;;;;;;;;;;5025109;28;19936;-54
2024/02/12 01:01:21;;;;;;;;;;;;;;;;;;5024498;28;19936;-55
2024/02/12 01:03:47;;;;;;;;;;;;;;;;;;5026769;28;19956;-56
2024/02/12 01:06:16;;;;;;;;;;;;;;;;;;5028653;28;19914;-54
2024/02/12 01:08:43;;;;;;;;;;;;;;;;;;5028744;28;19905;-53
2024/02/12 01:11:09;;;;;;;;;;;;;;;;;;5028532;28;20279;-53
2024/02/12 01:13:35;;;;;;;;;;;;;;;;;;5028973;28;19919;-54
2024/02/12 01:16:01;;;;;;;;;;;;;;;;;;5028369;28;19905;-53
2024/02/12 01:18:28;;;;;;;;;;;;;;;;;;5028556;28;20016;-52
2024/02/12 01:20:55;;;;;;;;;;;;;;;;;;5028078;28;19906;-55
2024/02/12 01:23:22;;;;;;;;;;;;;;;;;;5028396;28;19936;-52
2024/02/12 01:25:50;;;;;;;;;;;;;;;;;;5028234;28;19912;-53
2024/02/12 01:28:16;;;;;;;;;;;;;;;;;;5028473;28;19905;-59
2024/02/12 01:30:43;;;;;;;;;;;;;;;;;;5028185;28;20245;-61
2024/02/12 01:33:09;;;;;;;;;;;;;;;;;;5027971;28;19909;-57
2024/02/12 01:35:35;;;;;;;;;;;;;;;;;;5027721;28;19936;-53
2024/02/12 01:38:01;;;;;;;;;;;;;;;;;;5028226;28;19912;-52
2024/02/12 01:40:27;;;;;;;;;;;;;;;;;;5027887;28;20243;-50
2024/02/12 01:42:54;;;;;;;;;;;;;;;;;;5025908;28;19913;-54
2024/02/12 01:45:26;;;;;;;;;;;;;;;;;;5025786;28;19910;-54
2024/02/12 01:47:58;;;;;;;;;;;;;;;;;;5027401;28;19906;-56
2024/02/12 01:50:24;;;;;;;;;;;;;;;;;;5026255;28;19917;-57
2024/02/12 01:52:50;;;;;;;;;;;;;;;;;;5026672;28;20185;-54
2024/02/12 01:55:16;;;;;;;;;;;;;;;;;;5027284;28;20162;-54
2024/02/12 01:57:42;;;;;;;;;;;;;;;;;;5027353;28;19912;-55
2024/02/12 02:00:11;;;;;;;;;;;;;;;;;;5027400;28;19973;-56
2024/02/12 02:02:42;;;;;;;;;;;;;;;;;;5027233;28;19909;-55
2024/02/12 02:05:08;;;;;;;;;;;;;;;;;;5027263;28;19940;-53
2024/02/12 02:07:36;;;;;;;;;;;;;;;;;;5027509;28;19936;-54
2024/02/12 02:10:04;;;;;;;;;;;;;;;;;;5027170;28;20097;-53
2024/02/12 02:12:30;;;;;;;;;;;;;;;;;;5027061;28;19945;-54
2024/02/12 02:14:57;;;;;;;;;;;;;;;;;;5026448;28;20149;-55
2024/02/12 02:17:23;;;;;;;;;;;;;;;;;;5026938;28;19943;-52
2024/02/12 02:19:49;;;;;;;;;;;;;;;;;;5025203;28;20000;-52
2024/02/12 02:22:16;;;;;;;;;;;;;;;;;;5027020;28;19944;-54
2024/02/12 02:24:42;;;;;;;;;;;;;;;;;;5026985;28;20003;-55
2024/02/12 02:27:09;;;;;;;;;;;;;;;;;;5026471;28;19932;-53
2024/02/12 02:29:37;;;;;;;;;;;;;;;;;;5027372;28;19927;-55
2024/02/12 02:32:03;;;;;;;;;;;;;;;;;;5027008;28;19909;-53
2024/02/12 02:34:29;;;;;;;;;;;;;;;;;;5026604;28;19905;-53
2024/02/12 02:36:56;;;;;;;;;;;;;;;;;;5026961;28;19905;-48
2024/02/12 02:39:22;;;;;;;;;;;;;;;;;;5026367;28;20071;-54
2024/02/12 02:41:48;;;;;;;;;;;;;;;;;;5026415;28;19912;-59
2024/02/12 02:44:16;;;;;;;;;;;;;;;;;;5027062;28;19909;-56
2024/02/12 02:46:42;;;;;;;;;;;;;;;;;;5026593;28;19933;-56
2024/02/12 02:49:10;;;;;;;;;;;;;;;;;;5026885;28;19951;-56
2024/02/12 02:51:37;;;;;;;;;;;;;;;;;;5026492;28;19980;-54
2024/02/12 02:54:04;;;;;;;;;;;;;;;;;;5026843;28;19905;-52
2024/02/12 02:56:30;;;;;;;;;;;;;;;;;;5026143;28;19933;-51
2024/02/12 02:58:57;;;;;;;;;;;;;;;;;;5027338;28;19905;-57
2024/02/12 03:01:23;;;;;;;;;;;;;;;;;;5026411;28;19905;-52
2024/02/12 03:03:51;;;;;;;;;;;;;;;;;;5026083;28;19913;-53
2024/02/12 03:06:18;;;;;;;;;;;;;;;;;;5026226;28;19987;-49
2024/02/12 03:08:45;;;;;;;;;;;;;;;;;;5026720;28;19912;-56
2024/02/12 03:11:11;;;;;;;;;;;;;;;;;;5026317;28;19932;-52
2024/02/12 03:13:37;;;;;;;;;;;;;;;;;;5026364;28;20063;-51
2024/02/12 03:16:04;;;;;;;;;;;;;;;;;;5026252;28;19909;-55
2024/02/12 03:18:30;;;;;;;;;;;;;;;;;;5025917;28;19944;-49
2024/02/12 03:20:56;;;;;;;;;;;;;;;;;;5026253;28;19909;-53
2024/02/12 03:23:22;;;;;;;;;;;;;;;;;;5026339;28;19912;-56
2024/02/12 03:25:49;;;;;;;;;;;;;;;;;;5025572;28;19905;-52
2024/02/12 03:28:15;;;;;;;;;;;;;;;;;;5025500;28;19906;-51
2024/02/12 03:30:42;;;;;;;;;;;;;;;;;;5025870;28;20132;-59
2024/02/12 03:33:08;;;;;;;;;;;;;;;;;;5026224;28;19915;-55
2024/02/12 03:35:34;;;;;;;;;;;;;;;;;;5025669;28;20197;-51
2024/02/12 03:38:00;;;;;;;;;;;;;;;;;;5025834;28;19909;-50
2024/02/12 03:40:28;;;;;;;;;;;;;;;;;;5025902;28;19905;-55
2024/02/12 03:42:54;;;;;;;;;;;;;;;;;;5025772;28;19920;-54
2024/02/12 03:45:21;;;;;;;;;;;;;;;;;;5026130;28;19905;-54
2024/02/12 03:47:49;;;;;;;;;;;;;;;;;;5026222;28;19911;-58
2024/02/12 04:01:14;;;;;;;;;;;;;;;;;;5025585;28;19912;-51
2024/02/12 04:03:41;;;;;;;;;;;;;;;;;;5025353;28;20106;-55
2024/02/12 04:06:12;;;;;;;;;;;;;;;;;;5025213;28;19905;-53
2024/02/12 04:08:41;;;;;;;;;;;;;;;;;;5025457;28;19946;-52
2024/02/12 04:11:08;;;;;;;;;;;;;;;;;;5025165;28;19909;-52
2024/02/12 04:13:35;;;;;;;;;;;;;;;;;;5025720;28;19913;-55
2024/02/12 04:16:02;;;;;;;;;;;;;;;;;;5025289;28;19905;-54
2024/02/12 04:18:31;;;;;;;;;;;;;;;;;;5025253;28;19906;-53
2024/02/12 04:20:57;;;;;;;;;;;;;;;;;;5025170;28;19959;-55
2024/02/12 04:23:24;;;;;;;;;;;;;;;;;;5025033;28;19941;-50
2024/02/12 04:25:50;;;;;;;;;;;;;;;;;;5025489;28;19999;-55
2024/02/12 04:28:18;;;;;;;;;;;;;;;;;;5025289;28;19932;-54
2024/02/12 04:30:44;;;;;;;;;;;;;;;;;;5025050;28;19905;-55
2024/02/12 04:33:10;;;;;;;;;;;;;;;;;;5024955;28;19947;-52
2024/02/12 04:35:37;;;;;;;;;;;;;;;;;;5025270;28;19905;-56
2024/02/12 04:38:03;;;;;;;;;;;;;;;;;;5024559;28;20227;-52
2024/02/12 04:40:29;;;;;;;;;;;;;;;;;;5025036;28;19976;-54
2024/02/12 04:42:57;;;;;;;;;;;;;;;;;;5024964;28;19905;-56
2024/02/12 04:45:24;;;;;;;;;;;;;;;;;;5025253;28;19905;-53
2024/02/12 04:47:50;;;;;;;;;;;;;;;;;;5025165;28;19973;-54
2024/02/12 04:50:16;;;;;;;;;;;;;;;;;;5024740;28;19912;-52
2024/02/12 04:52:42;;;;;;;;;;;;;;;;;;5024866;28;19909;-55
2024/02/12 04:55:12;;;;;;;;;;;;;;;;;;5024889;28;19912;-54
2024/02/12 04:57:38;;;;;;;;;;;;;;;;;;5024629;28;19905;-54
2024/02/12 05:00:04;;;;;;;;;;;;;;;;;;5025069;28;19906;-55
2024/02/12 05:02:33;;;;;;;;;;;;;;;;;;5024457;28;19951;-51
2024/02/12 05:05:00;;;;;;;;;;;;;;;;;;5025015;28;19924;-55
2024/02/12 05:07:27;;;;;;;;;;;;;;;;;;5024612;28;19992;-54
2024/02/12 05:09:53;;;;;;;;;;;;;;;;;;5024371;28;20094;-56
2024/02/12 05:12:19;;;;;;;;;;;;;;;;;;5024726;28;19940;-50
2024/02/12 05:14:46;;;;;;;;;;;;;;;;;;5024310;28;19905;-52
2024/02/12 05:17:13;;;;;;;;;;;;;;;;;;5024522;28;20169;-54
2024/02/12 05:22:33;;;;;;;;;;;;;;;;;;5024469;28;19924;-55
2024/02/12 05:25:00;;;;;;;;;;;;;;;;;;5024337;28;19916;-54
2024/02/12 05:27:26;;;;;;;;;;;;;;;;;;5024442;28;19904;-51
2024/02/12 05:29:52;;;;;;;;;;;;;;;;;;5024407;28;19915;-55
2024/02/12 05:32:19;;;;;;;;;;;;;;;;;;5024141;28;19905;-55
2024/02/12 05:34:48;;;;;;;;;;;;;;;;;;5024453;28;20141;-48
2024/02/12 05:37:15;;;;;;;;;;;;;;;;;;5024320;28;19898;-53
2024/02/12 05:39:42;;;;;;;;;;;;;;;;;;5024466;28;20097;-58
2024/02/12 05:42:08;;;;;;;;;;;;;;;;;;5024447;28;19904;-54
2024/02/12 05:44:35;;;;;;;;;;;;;;;;;;5024612;28;19988;-52
2024/02/12 05:47:01;;;;;;;;;;;;;;;;;;5023783;28;19905;-51
2024/02/12 05:49:29;;;;;;;;;;;;;;;;;;5015467;28;19905;-54
2024/02/12 05:51:55;;;;;;;;;;;;;;;;;;5010212;28;20170;-56
2024/02/12 05:54:21;;;;;;;;;;;;;;;;;;5027931;28;20031;-54
2024/02/12 05:56:47;;;;;;;;;;;;;;;;;;5027813;28;19905;-50
2024/02/12 05:59:13;;;;;;;;;;;;;;;;;;5028426;28;19913;-54
2024/02/12 06:01:39;;;;;;;;;;;;;;;;;;5027368;28;19921;-55
2024/02/12 06:04:06;;;;;;;;;;;;;;;;;;5026209;28;19956;-55
2024/02/12 06:06:32;;;;;;;;;;;;;;;;;;5026351;28;19909;-59
2024/02/12 06:08:58;;;;;;;;;;;;;;;;;;5027752;28;19912;-62
2024/02/12 06:11:24;;;;;;;;;;;;;;;;;;5026571;28;19913;-56
2024/02/12 06:13:51;;;;;;;;;;;;;;;;;;5027722;28;19960;-55
2024/02/12 06:16:17;;;;;;;;;;;;;;;;;;5026969;28;20178;-54
2024/02/12 06:18:44;;;;;;;;;;;;;;;;;;5025393;28;19905;-55
2024/02/12 06:21:10;;;;;;;;;;;;;;;;;;5025346;28;19941;-58
2024/02/12 06:23:37;;;;;;;;;;;;;;;;;;5025767;28;19976;-53
2024/02/12 06:26:03;;;;;;;;;;;;;;;;;;5025157;28;19905;-52
2024/02/12 06:28:29;;;;;;;;;;;;;;;;;;5025402;28;19921;-55
2024/02/12 06:30:56;;;;;;;;;;;;;;;;;;5025360;28;20197;-52
2024/02/12 06:33:22;;;;;;;;;;;;;;;;;;5025101;28;19909;-55
2024/02/12 06:35:48;;;;;;;;;;;;;;;;;;5025127;28;19905;-56
2024/02/12 06:38:14;;;;;;;;;;;;;;;;;;5025272;28;19947;-55
2024/02/12 06:40:40;;;;;;;;;;;;;;;;;;5025551;28;19936;-55
2024/02/12 06:43:07;;;;;;;;;;;;;;;;;;5025652;28;19906;-53
2024/02/12 06:45:33;;;;;;;;;;;;;;;;;;5026314;28;19941;-54
2024/02/12 06:47:59;;;;;;;;;;;;;;;;;;5026797;28;20231;-52
2024/02/12 06:50:25;;;;;;;;;;;;;;;;;;5026642;28;19906;-57
2024/02/12 06:52:52;;;;;;;;;;;;;;;;;;5026694;28;20088;-54
2024/02/12 06:55:19;;;;;;;;;;;;;;;;;;5026411;28;19905;-53
2024/02/12 06:57:48;;;;;;;;;;;;;;;;;;5026410;28;19936;-53
2024/02/12 07:00:15;;;;;;;;;;;;;;;;;;5026588;28;19905;-54
2024/02/12 07:02:42;;;;;;;;;;;;;;;;;;5026061;28;19905;-58
2024/02/12 07:05:08;;;;;;;;;;;;;;;;;;5026127;28;20009;-58
2024/02/12 07:07:35;;;;;;;;;;;;;;;;;;5026420;28;19913;-57
2024/02/12 07:10:01;;;;;;;;;;;;;;;;;;5026366;28;20190;-56
2024/02/12 07:12:27;;;;;;;;;;;;;;;;;;5025937;28;19905;-54
2024/02/12 07:14:53;;;;;;;;;;;;;;;;;;5026119;28;19913;-55
2024/02/12 07:17:20;;;;;;;;;;;;;;;;;;5026004;28;20236;-51
2024/02/12 07:19:47;;;;;;;;;;;;;;;;;;5025811;28;19951;-54
2024/02/12 07:22:13;;;;;;;;;;;;;;;;;;5026078;28;19968;-57
2024/02/12 07:24:40;;;;;;;;;;;;;;;;;;5025932;28;19956;-52
2024/02/12 07:27:07;;;;;;;;;;;;;;;;;;5026142;28;19901;-50
2024/02/12 07:29:33;;;;;;;;;;;;;;;;;;5026623;28;20039;-60
2024/02/12 07:31:59;;;;;;;;;;;;;;;;;;5026139;28;20261;-58
2024/02/12 07:34:25;;;;;;;;;;;;;;;;;;5026301;28;19906;-58
2024/02/12 07:36:51;;;;;;;;;;;;;;;;;;5025544;28;19947;-59
2024/02/12 07:39:19;;;;;;;;;;;;;;;;;;5026103;28;19967;-56
2024/02/12 07:41:47;;;;;;;;;;;;;;;;;;5025450;28;20105;-55
2024/02/12 07:44:13;;;;;;;;;;;;;;;;;;5026266;28;19928;-57
2024/02/12 07:46:40;;;;;;;;;;;;;;;;;;5025965;28;20078;-57
2024/02/12 07:49:06;;;;;;;;;;;;;;;;;;5026091;28;19912;-56
2024/02/12 07:51:32;;;;;;;;;;;;;;;;;;5025487;28;19909;-56
2024/02/12 07:53:58;;;;;;;;;;;;;;;;;;5025985;28;19959;-57
2024/02/12 07:56:24;;;;;;;;;;;;;;;;;;5025523;28;19972;-57
2024/02/12 07:58:50;;;;;;;;;;;;;;;;;;5025926;28;19983;-56
2024/02/12 08:01:17;;;;;;;;;;;;;;;;;;5025705;28;19937;-53
2024/02/12 08:03:43;;;;;;;;;;;;;;;;;;5024860;28;19913;-56
2024/02/12 08:06:09;;;;;;;;;;;;;;;;;;5025466;28;19905;-52
2024/02/12 08:08:35;;;;;;;;;;;;;;;;;;5025609;28;20216;-53
2024/02/12 08:11:02;;;;;;;;;;;;;;;;;;5025359;28;19905;-56
2024/02/12 08:13:28;;;;;;;;;;;;;;;;;;5024426;28;19979;-56
2024/02/12 08:15:54;;;;;;;;;;;;;;;;;;5024964;28;19905;-56
2024/02/12 08:18:21;;;;;;;;;;;;;;;;;;5024227;28;19906;-50
2024/02/12 08:20:47;;;;;;;;;;;;;;;;;;5024807;28;19905;-50
2024/02/12 08:23:13;;;;;;;;;;;;;;;;;;5025369;28;19905;-52
2024/02/12 08:25:40;;;;;;;;;;;;;;;;;;5025254;28;19912;-49
2024/02/12 08:28:07;;;;;;;;;;;;;;;;;;5024844;28;19976;-48
2024/02/12 08:30:33;;;;;;;;;;;;;;;;;;5024928;28;19906;-52
2024/02/12 08:33:00;;;;;;;;;;;;;;;;;;5024770;28;19909;-49
2024/02/12 08:35:26;;;;;;;;;;;;;;;;;;5024674;28;20190;-53
2024/02/12 08:37:52;;;;;;;;;;;;;;;;;;5024964;28;19912;-49
2024/02/12 08:40:19;;;;;;;;;;;;;;;;;;5025153;28;19937;-51
2024/02/12 08:42:45;;;;;;;;;;;;;;;;;;5024915;28;19912;-49
2024/02/12 08:45:12;;;;;;;;;;;;;;;;;;5024900;28;20086;-51
2024/02/12 08:47:38;;;;;;;;;;;;;;;;;;5024606;28;19905;-47
2024/02/12 08:50:04;;;;;;;;;;;;;;;;;;5024914;28;20236;-51
2024/02/12 08:52:33;;;;;;;;;;;;;;;;;;5024991;28;19944;-49
2024/02/12 08:54:59;;;;;;;;;;;;;;;;;;5024649;28;19906;-47
2024/02/12 08:57:25;;;;;;;;;;;;;;;;;;5024566;28;19920;-49
2024/02/12 08:59:52;;;;;;;;;;;;;;;;;;5024665;28;19917;-50
2024/02/12 09:02:19;;;;;;;;;;;;;;;;;;5024332;28;19898;-49
2024/02/12 09:04:46;;;;;;;;;;;;;;;;;;5024427;28;19918;-51
2024/02/12 09:07:12;;;;;;;;;;;;;;;;;;5024697;28;19913;-50
2024/02/12 09:09:38;;;;;;;;;;;;;;;;;;5024519;28;19924;-53
2024/02/12 09:12:05;;;;;;;;;;;;;;;;;;5024696;28;19906;-48
2024/02/12 09:14:31;;;;;;;;;;;;;;;;;;5024723;28;19905;-47
2024/02/12 09:16:58;;;;;;;;;;;;;;;;;;5024347;28;19906;-50
2024/02/12 09:19:24;;;;;;;;;;;;;;;;;;5025142;28;19912;-50
2024/02/12 09:21:50;;;;;;;;;;;;;;;;;;5024301;28;20141;-50
2024/02/12 09:24:18;;;;;;;;;;;;;;;;;;5026614;28;19905;-49
2024/02/12 09:26:44;;;;;;;;;;;;;;;;;;5028163;28;19940;-48
2024/02/12 09:29:10;;;;;;;;;;;;;;;;;;5028718;28;19976;-49
2024/02/12 09:31:36;;;;;;;;;;;;;;;;;;5028353;28;19955;-50
2024/02/12 09:34:03;;;;;;;;;;;;;;;;;;5027878;28;20155;-46
2024/02/12 09:36:29;;;;;;;;;;;;;;;;;;5028130;28;19941;-53
2024/02/12 09:38:55;;;;;;;;;;;;;;;;;;5028481;28;20046;-56
2024/02/12 09:41:21;;;;;;;;;;;;;;;;;;5028330;28;19947;-49
2024/02/12 09:43:47;;;;;;;;;;;;;;;;;;5028682;28;19906;-49
2024/02/12 09:46:13;;;;;;;;;;;;;;;;;;5027964;28;19906;-51
2024/02/12 09:48:40;;;;;;;;;;;;;;;;;;5028628;28;20082;-55
2024/02/12 09:51:06;;;;;;;;;;;;;;;;;;5027614;28;20197;-59
2024/02/12 09:53:34;;;;;;;;;;;;;;;;;;5028106;28;19945;-55
2024/02/12 09:56:00;;;;;;;;;;;;;;;;;;5028040;28;20085;-51
2024/02/12 09:58:27;;;;;;;;;;;;;;;;;;5027646;28;19912;-54
2024/02/12 10:00:53;;;;;;;;;;;;;;;;;;5027818;28;19939;-56
2024/02/12 10:03:20;;;;;;;;;;;;;;;;;;5027290;28;19912;-52
2024/02/12 10:05:46;;;;;;;;;;;;;;;;;;5027597;28;20280;-48
2024/02/12 10:08:12;;;;;;;;;;;;;;;;;;5027569;28;19920;-49
2024/02/12 10:10:38;;;;;;;;;;;;;;;;;;5027539;28;19906;-55
2024/02/12 10:13:04;;;;;;;;;;;;;;;;;;5027387;28;19945;-51
2024/02/12 10:15:31;;;;;;;;;;;;;;;;;;5027564;28;19951;-54
2024/02/12 10:17:57;;;;;;;;;;;;;;;;;;5027468;28;20181;-47
2024/02/12 10:20:23;;;;;;;;;;;;;;;;;;5027619;28;19905;-51
2024/02/12 10:22:49;;;;;;;;;;;;;;;;;;5027125;28;19905;-50
2024/02/12 10:25:19;;;;;;;;;;;;;;;;;;5027190;28;20106;-50
2024/02/12 10:27:45;;;;;;;;;;;;;;;;;;5027087;28;19905;-51
2024/02/12 10:30:11;;;;;;;;;;;;;;;;;;5027153;28;19967;-50
2024/02/12 10:32:38;;;;;;;;;;;;;;;;;;5027514;28;19976;-53
2024/02/12 10:35:06;;;;;;;;;;;;;;;;;;5026697;28;20200;-51
2024/02/12 10:37:34;;;;;;;;;;;;;;;;;;5026646;28;19902;-51
2024/02/12 10:40:00;;;;;;;;;;;;;;;;;;5026866;28;19913;-51
2024/02/12 10:42:26;;;;;;;;;;;;;;;;;;5026944;28;20189;-52
2024/02/12 10:44:52;;;;;;;;;;;;;;;;;;5026951;28;19941;-52
2024/02/12 10:47:19;;;;;;;;;;;;;;;;;;5026777;28;19969;-54
2024/02/12 10:49:45;;;;;;;;;;;;;;;;;;5026663;28;19906;-54
2024/02/12 10:52:14;;;;;;;;;;;;;;;;;;5026387;28;20201;-52
2024/02/12 10:54:41;;;;;;;;;;;;;;;;;;5026409;28;19913;-49
2024/02/12 10:57:08;;;;;;;;;;;;;;;;;;5026392;28;19908;-55
2024/02/12 10:59:34;;;;;;;;;;;;;;;;;;5026719;28;19912;-48
2024/02/12 11:02:00;;;;;;;;;;;;;;;;;;5026358;28;20134;-50
2024/02/12 11:04:27;;;;;;;;;;;;;;;;;;5026448;28;19957;-54
2024/02/12 11:06:53;;;;;;;;;;;;;;;;;;5026515;28;19905;-54
2024/02/12 11:09:19;;;;;;;;;;;;;;;;;;5026815;28;19948;-56
2024/02/12 11:11:46;;;;;;;;;;;;;;;;;;5026129;28;19916;-52
2024/02/12 11:14:12;;;;;;;;;;;;;;;;;;5026502;28;20173;-56
2024/02/12 11:16:38;;;;;;;;;;;;;;;;;;5026029;28;19913;-55
2024/02/12 11:19:07;;;;;;;;;;;;;;;;;;5026571;28;19998;-52
2024/02/12 11:21:38;;;;;;;;;;;;;;;;;;5025999;28;19909;-57
2024/02/12 11:24:07;;;;;;;;;;;;;;;;;;5026006;28;19905;-55
2024/02/12 11:26:34;;;;;;;;;;;;;;;;;;5025944;28;19906;-50
2024/02/12 11:29:00;;;;;;;;;;;;;;;;;;5025449;28;19917;-55
2024/02/12 11:31:26;;;;;;;;;;;;;;;;;;5025901;28;19944;-52
2024/02/12 11:33:53;;;;;;;;;;;;;;;;;;5026046;28;19948;-51
2024/02/12 11:36:19;;;;;;;;;;;;;;;;;;5025579;28;20198;-53
2024/02/12 11:38:46;;;;;;;;;;;;;;;;;;5025945;28;19929;-56
2024/02/12 11:41:12;;;;;;;;;;;;;;;;;;5025571;28;19912;-55
2024/02/12 11:43:39;;;;;;;;;;;;;;;;;;5025912;28;19972;-52
2024/02/12 11:46:05;;;;;;;;;;;;;;;;;;5025773;28;19980;-50
2024/02/12 11:48:31;;;;;;;;;;;;;;;;;;5024796;28;19905;-50
2024/02/12 11:50:57;;;;;;;;;;;;;;;;;;5025680;28;19928;-52
2024/02/12 11:53:25;;;;;;;;;;;;;;;;;;5025327;28;20193;-55
2024/02/12 11:55:51;;;;;;;;;;;;;;;;;;5024060;28;19913;-51
2024/02/12 11:58:17;;;;;;;;;;;;;;;;;;5024946;28;19909;-53
2024/02/12 12:00:44;;;;;;;;;;;;;;;;;;5025213;28;19951;-54
2024/02/12 12:03:10;;;;;;;;;;;;;;;;;;5024923;28;19905;-53
2024/02/12 12:05:38;;;;;;;;;;;;;;;;;;5025413;28;20133;-54
2024/02/12 12:08:05;;;;;;;;;;;;;;;;;;5025276;28;19913;-52
2024/02/12 12:10:32;;;;;;;;;;;;;;;;;;5025283;28;19938;-54
2024/02/12 12:12:59;;;;;;;;;;;;;;;;;;5025135;28;19909;-53
2024/02/12 12:15:25;;;;;;;;;;;;;;;;;;5025085;28;19906;-53
2024/02/12 12:17:51;;;;;;;;;;;;;;;;;;5024935;28;19909;-55
2024/02/12 12:20:18;;;;;;;;;;;;;;;;;;5025079;28;20105;-54
2024/02/12 12:22:44;;;;;;;;;;;;;;;;;;5024821;28;19905;-50
2024/02/12 12:25:10;;;;;;;;;;;;;;;;;;5025150;28;19928;-51
2024/02/12 12:27:41;;;;;;;;;;;;;;;;;;5024741;28;19912;-59
2024/02/12 12:30:14;;;;;;;;;;;;;;;;;;5024706;28;20194;-50
2024/02/12 12:32:41;;;;;;;;;;;;;;;;;;5024735;28;19909;-47
2024/02/12 12:35:07;;;;;;;;;;;;;;;;;;5024648;28;20198;-51
2024/02/12 12:37:33;;;;;;;;;;;;;;;;;;5024550;28;19965;-54
2024/02/12 12:39:59;;;;;;;;;;;;;;;;;;5024843;28;19905;-52
2024/02/12 12:42:25;;;;;;;;;;;;;;;;;;5024766;28;19973;-57
2024/02/12 12:44:51;;;;;;;;;;;;;;;;;;5024697;28;20248;-55
2024/02/12 12:47:21;;;;;;;;;;;;;;;;;;5024538;28;19908;-52
2024/02/12 12:49:48;;;;;;;;;;;;;;;;;;5024610;28;20193;-54
2024/02/12 12:52:14;;;;;;;;;;;;;;;;;;5024312;28;20136;-58
2024/02/12 12:54:40;;;;;;;;;;;;;;;;;;5017676;28;19912;-55
2024/02/12 12:57:07;;;;;;;;;;;;;;;;;;5024655;28;19901;-50
2024/02/12 12:59:33;;;;;;;;;;;;;;;;;;5028449;28;20173;-55
2024/02/12 13:02:06;;;;;;;;;;;;;;;;;;5029779;28;19905;-53
2024/02/12 13:04:32;;;;;;;;;;;;;;;;;;5030827;28;19913;-54
2024/02/12 13:06:59;;;;;;;;;;;;;;;;;;5030829;28;19909;-54
2024/02/12 13:09:26;;;;;;;;;;;;;;;;;;5031293;28;20121;-58
2024/02/12 13:11:55;;;;;;;;;;;;;;;;;;5029898;28;19913;-55
2024/02/12 13:14:22;;;;;;;;;;;;;;;;;;5030689;28;19905;-56
2024/02/12 13:16:51;;;;;;;;;;;;;;;;;;5031324;28;20147;-57
2024/02/12 13:19:18;;;;;;;;;;;;;;;;;;5030457;28;19913;-57
2024/02/12 13:21:44;;;;;;;;;;;;;;;;;;5015614;28;19913;-56
2024/02/12 13:24:13;;;;;;;;;;;;;;;;;;5011520;28;19929;-57
2024/02/12 13:26:40;;;;;;;;;;;;;;;;;;5011073;28;19906;-58
2024/02/12 13:29:06;;;;;;;;;;;;;;;;;;5011277;28;19913;-59
2024/02/12 13:31:34;;;;;;;;;;;;;;;;;;5010911;28;19914;-56
2024/02/12 13:34:02;;;;;;;;;;;;;;;;;;5010932;28;19913;-54
2024/02/12 13:36:29;;;;;;;;;;;;;;;;;;5010734;28;19969;-56
2024/02/12 13:38:55;;;;;;;;;;;;;;;;;;5011166;28;20182;-49
2024/02/12 13:41:21;;;;;;;;;;;;;;;;;;5018909;28;19913;-55
2024/02/12 13:43:50;;;;;;;;;;;;;;;;;;5029038;28;19912;-55
2024/02/12 13:46:16;;;;;;;;;;;;;;;;;;5030568;28;20190;-55
2024/02/12 13:48:43;;;;;;;;;;;;;;;;;;5030751;28;20177;-54
2024/02/12 13:51:09;;;;;;;;;;;;;;;;;;5030297;28;19980;-51
2024/02/12 13:53:35;;;;;;;;;;;;;;;;;;5030968;28;20125;-55
2024/02/12 13:56:01;;;;;;;;;;;;;;;;;;5030475;28;19905;-55
2024/02/12 13:58:28;;;;;;;;;;;;;;;;;;5030551;28;19905;-53
2024/02/12 14:00:54;;;;;;;;;;;;;;;;;;5030400;28;19940;-55
2024/02/12 14:03:20;;;;;;;;;;;;;;;;;;5030379;28;20067;-52
2024/02/12 14:05:46;;;;;;;;;;;;;;;;;;5030308;28;19940;-56
2024/02/12 14:08:13;;;;;;;;;;;;;;;;;;5030643;28;19906;-53
2024/02/12 14:10:40;;;;;;;;;;;;;;;;;;5027783;28;19913;-56
2024/02/12 14:13:07;;;;;;;;;;;;;;;;;;5027228;28;20058;-59
2024/02/12 14:15:36;;;;;;;;;;;;;;;;;;5026496;28;19924;-57
2024/02/12 14:18:09;;;;;;;;;;;;;;;;;;5027268;28;20189;-59
2024/02/12 14:20:35;;;;;;;;;;;;;;;;;;5027171;28;20208;-57
2024/02/12 14:23:01;;;;;;;;;;;;;;;;;;5027107;28;19906;-61
2024/02/12 14:25:31;;;;;;;;;;;;;;;;;;5026365;28;19910;-54
2024/02/12 14:28:00;;;;;;;;;;;;;;;;;;5026595;28;20097;-55
2024/02/12 14:30:26;;;;;;;;;;;;;;;;;;5026952;28;19905;-60
2024/02/12 14:32:52;;;;;;;;;;;;;;;;;;5025989;28;20213;-56
2024/02/12 14:35:19;;;;;;;;;;;;;;;;;;5026294;28;19948;-53
2024/02/12 14:37:45;;;;;;;;;;;;;;;;;;5026330;28;19913;-57
2024/02/12 14:40:11;;;;;;;;;;;;;;;;;;5026630;28;20208;-52
2024/02/12 14:42:38;;;;;;;;;;;;;;;;;;5026560;28;19932;-51
2024/02/12 14:45:08;;;;;;;;;;;;;;;;;;5026737;28;20008;-56
2024/02/12 14:47:57;;;;;;;;;;;;;;;;;;5025362;28;20196;-56
2024/02/12 14:50:26;;;;;;;;;;;;;;;;;;5026191;28;19909;-57
2024/02/12 14:52:53;;;;;;;;;;;;;;;;;;5026436;28;19916;-52
2024/02/12 14:55:19;;;;;;;;;;;;;;;;;;5026289;28;20082;-55
2024/02/12 14:57:45;;;;;;;;;;;;;;;;;;5026542;28;19905;-55
2024/02/12 15:00:14;;;;;;;;;;;;;;;;;;5026991;28;19909;-53
2024/02/12 15:02:41;;;;;;;;;;;;;;;;;;5026207;28;20130;-53
2024/02/12 15:05:07;;;;;;;;;;;;;;;;;;5026175;28;19924;-60
2024/02/12 15:07:33;;;;;;;;;;;;;;;;;;5026515;28;19917;-55
2024/02/12 15:10:00;;;;;;;;;;;;;;;;;;5026111;28;20105;-55
2024/02/12 15:12:27;;;;;;;;;;;;;;;;;;5026104;28;19913;-55
2024/02/12 15:14:54;;;;;;;;;;;;;;;;;;5026397;28;20172;-54
2024/02/12 15:17:21;;;;;;;;;;;;;;;;;;5024264;28;19905;-50
2024/02/12 15:19:47;;;;;;;;;;;;;;;;;;5020718;28;19924;-53
2024/02/12 15:22:13;;;;;;;;;;;;;;;;;;5019578;28;19913;-54
2024/02/12 15:24:40;;;;;;;;;;;;;;;;;;5025192;28;19909;-53
2024/02/12 15:27:07;;;;;;;;;;;;;;;;;;5005041;28;19901;-56
2024/02/12 15:29:34;;;;;;;;;;;;;;;;;;5012608;28;19924;-52
2024/02/12 15:32:02;;;;;;;;;;;;;;;;;;5025626;28;19909;-54
2024/02/12 15:34:28;;;;;;;;;;;;;;;;;;5025977;28;19912;-53
2024/02/12 15:36:54;;;;;;;;;;;;;;;;;;5025748;28;19905;-52
2024/02/12 15:39:20;;;;;;;;;;;;;;;;;;5026017;28;19944;-52
2024/02/12 15:41:46;;;;;;;;;;;;;;;;;;5024898;28;20212;-54
2024/02/12 15:44:13;;;;;;;;;;;;;;;;;;5025974;28;19912;-52
2024/02/12 15:46:39;;;;;;;;;;;;;;;;;;5025549;28;19905;-51
2024/02/12 15:49:06;;;;;;;;;;;;;;;;;;5025651;28;19919;-53
2024/02/12 15:51:32;;;;;;;;;;;;;;;;;;5025310;28;19909;-56
2024/02/12 15:53:58;;;;;;;;;;;;;;;;;;5025734;28;19940;-57
2024/02/12 15:56:25;;;;;;;;;;;;;;;;;;5024533;28;19940;-52
2024/02/12 15:58:52;;;;;;;;;;;;;;;;;;5025520;28;19927;-60
2024/02/12 16:01:20;;;;;;;;;;;;;;;;;;5024906;28;19975;-54
2024/02/12 16:03:46;;;;;;;;;;;;;;;;;;5023531;28;19913;-58
2024/02/12 16:06:14;;;;;;;;;;;;;;;;;;5025207;28;19909;-51
2024/02/12 16:08:40;;;;;;;;;;;;;;;;;;5024692;28;20352;-54
2024/02/12 16:11:06;;;;;;;;;;;;;;;;;;5024842;28;19905;-57
2024/02/12 16:13:32;;;;;;;;;;;;;;;;;;5025008;28;20093;-56
2024/02/12 16:16:00;;;;;;;;;;;;;;;;;;5024849;28;19909;-64
2024/02/12 16:18:28;;;;;;;;;;;;;;;;;;5024939;28;19914;-55
2024/02/12 16:20:54;;;;;;;;;;;;;;;;;;5024459;28;19909;-62
2024/02/12 16:23:21;;;;;;;;;;;;;;;;;;5024392;28;19905;-56
2024/02/12 16:25:47;;;;;;;;;;;;;;;;;;5023255;28;20247;-53
2024/02/12 16:28:13;;;;;;;;;;;;;;;;;;5023641;28;19952;-49
2024/02/12 16:30:41;;;;;;;;;;;;;;;;;;5024872;28;19928;-49
2024/02/12 16:33:11;;;;;;;;;;;;;;;;;;5024394;28;19916;-48
2024/02/12 16:35:37;;;;;;;;;;;;;;;;;;5024507;28;19905;-50
2024/02/12 16:38:04;;;;;;;;;;;;;;;;;;5024768;28;19909;-54
2024/02/12 16:40:30;;;;;;;;;;;;;;;;;;5024696;28;19913;-53
2024/02/12 16:42:57;;;;;;;;;;;;;;;;;;5024856;28;19905;-51
2024/02/12 16:45:23;;;;;;;;;;;;;;;;;;5023648;28;19967;-59
2024/02/12 16:47:50;;;;;;;;;;;;;;;;;;5023940;28;20137;-61
2024/02/12 16:50:16;;;;;;;;;;;;;;;;;;5024490;28;19912;-56
2024/02/12 16:52:42;;;;;;;;;;;;;;;;;;5024621;28;19909;-55
2024/02/12 16:55:11;;;;;;;;;;;;;;;;;;5024570;28;19939;-55